This is the latest recevied weather packets stored in our database for station/object KG4QXL-2. If no packets are shown the sender has not sent any weather packets the latest 10 day(s).
| Time | Temp. | Humidity | Pressure | Rain* | Wind** | Luminosity | Snow |
|---|---|---|---|---|---|---|---|
| 1777316121 | 17.78° C | 59% | 1018 hPa | 0 mm | - | 10 W/m² | - |
| 1777311320 | 17.78° C | 59% | 1018.3 hPa | 0 mm | - | 31 W/m² | - |
| 1777308401 | 17.22° C | 62% | 1018.9 hPa | 0 mm | - | 37 W/m² | - |
| 1777307715 | 17.22° C | 64% | 1019 hPa | 0 mm | - | 47 W/m² | - |
| 1777306516 | 16.67° C | 62% | 1019 hPa | 0 mm | - | 20 W/m² | - |
| 1777305936 | 16.11° C | 65% | 1019 hPa | 0 mm | - | 59 W/m² | - |
| 1777305316 | 16.67° C | 65% | 1019 hPa | 0 mm | - | 11 W/m² | - |
| 1777302316 | 15° C | 72% | 1019.4 hPa | 0 mm | - | 11 W/m² | - |
| 1777300556 | 15° C | 73% | 1019.6 hPa | 0 mm | - | 16 W/m² | - |
| 1777299916 | 14.44° C | 75% | 1019.5 hPa | 0 mm | - | 20 W/m² | - |
| 1777299337 | 13.33° C | 77% | 1019.5 hPa | 0 mm | - | 14 W/m² | - |
| 1777297516 | 12.22° C | 84% | 1019.3 hPa | 0 mm | - | 7 W/m² | - |
| 1777296915 | 11.67° C | 86% | 1019.4 hPa | 0 mm | - | 7 W/m² | - |
| 1777296316 | 11.11° C | 89% | 1019.3 hPa | 0 mm | - | 6 W/m² | - |
| 1777293916 | 8.89° C | 97% | 1019.1 hPa | 0 mm | - | 4 W/m² | - |
| 1777290916 | 7.22° C | 98% | 1018.5 hPa | 0 mm | - | 4 W/m² | - |
| 1777284316 | 6.11° C | 97% | 1017.3 hPa | 0 mm | - | 0 W/m² | - |
| 1777282516 | 6.11° C | 97% | 1016.9 hPa | 0 mm | - | 0 W/m² | - |
| 1777281316 | 6.11° C | 97% | 1017 hPa | 0 mm | - | 0 W/m² | - |
| 1777280116 | 6.11° C | 97% | 1017.3 hPa | 0 mm | - | 0 W/m² | - |
| 1777273516 | 7.22° C | 96% | 1017 hPa | 0 mm | - | 0 W/m² | - |
| 1777269916 | 7.78° C | 96% | 1017.3 hPa | 0 mm | - | 0 W/m² | - |
| 1777260937 | 10° C | 90% | 1016.7 hPa | 0 mm | - | 0 W/m² | - |
| 1777258516 | 11.11° C | 84% | 1016.8 hPa | 0 mm | - | 0 W/m² | - |
| 1777257316 | 11.67° C | 84% | 1016.9 hPa | 0 mm | - | 0 W/m² | - |
* Rain latest hour (hover to see other rain measurements)
** Current wind speed in m/s (hover to see current wind gust speed)